This is the latest recevied weather packets stored in our database for station/object SQ6PCH-10. If no packets are shown the sender has not sent any weather packets the latest 10 day(s).
| Time | Temp. | Humidity | Pressure | Rain* | Wind** | Luminosity | Snow |
|---|---|---|---|---|---|---|---|
| 1777616243 | 11.67° C | 52% | 1013.2 hPa | - | - | - | - |
| 1777615643 | 11.11° C | 55% | 1013.2 hPa | - | - | - | - |
| 1777615043 | 10.56° C | 56% | 1013.2 hPa | - | - | - | - |
| 1777614442 | 9.44° C | 59% | 1013.1 hPa | - | - | - | - |
| 1777613842 | 8.89° C | 61% | 1013 hPa | - | - | - | - |
| 1777613242 | 8.33° C | 64% | 1013.1 hPa | - | - | - | - |
| 1777612642 | 7.78° C | 66% | 1013.3 hPa | - | - | - | - |
| 1777612042 | 7.22° C | 68% | 1013.2 hPa | - | - | - | - |
| 1777611441 | 7.22° C | 68% | 1013.1 hPa | - | - | - | - |
| 1777610841 | 6.67° C | 69% | 1013.1 hPa | - | - | - | - |
| 1777610241 | 6.67° C | 70% | 1013.1 hPa | - | - | - | - |
| 1777609641 | 6.11° C | 71% | 1013 hPa | - | - | - | - |
| 1777609041 | 6.11° C | 71% | 1013 hPa | - | - | - | - |
| 1777608441 | 6.11° C | 72% | 1013 hPa | - | - | - | - |
| 1777607841 | 6.11° C | 72% | 1012.9 hPa | - | - | - | - |
| 1777607240 | 6.11° C | 72% | 1012.8 hPa | - | - | - | - |
| 1777606640 | 6.11° C | 72% | 1012.9 hPa | - | - | - | - |
| 1777606040 | 6.11° C | 70% | 1013 hPa | - | - | - | - |
| 1777605440 | 6.67° C | 70% | 1012.8 hPa | - | - | - | - |
| 1777604840 | 6.67° C | 69% | 1012.8 hPa | - | - | - | - |
| 1777604239 | 7.22° C | 68% | 1012.8 hPa | - | - | - | - |
| 1777603639 | 7.22° C | 66% | 1012.9 hPa | - | - | - | - |
| 1777603039 | 7.78° C | 65% | 1013 hPa | - | - | - | - |
| 1777602439 | 7.78° C | 63% | 1012.9 hPa | - | - | - | - |
| 1777601839 | 8.33° C | 62% | 1012.8 hPa | - | - | - | - |
* Rain since midnight (hover to see other rain measurements)
** Current wind speed in m/s (hover to see current wind gust speed)